Heidelberg, Pennsylvania
Current Conditions -  °F | °C
As of 6:51 AM on Thursday 18 Dec 2014 (Local Time) from KPIT Reporting Station
Light Snow Light Snow  
Wind Chill: 22°   Ceiling: 2000
Heat Index: 28°   Visibility: 9mi
Dew Point: 20°   Wind: 6mph
Humidity: 72%   Direction: 270°W
Pressure: 30.18"   Gusts: NA
Location:  40.4095°N, 80.1154°W
Report Text: KPIT 181151Z 27005KT 9SM -SN OVC020 M02/M07 A3018 RMK AO2 SLP240 P0000 60000 T10221067 11022 21022 53004
Loading
Personal Weather Stations






























Interactive Weather Map New forecast layout! Learn more

10-Day Weather Forecast

Advertisements
Track Severe Weather on mobile